Ovid, Michigan
Current Conditions -  °F | °C
As of 12:34 PM on Friday 24 Oct 2014 (Local Time) from KRNP Reporting Station
Overcast Overcast  
Wind Chill: 55°   Ceiling: 3600
Heat Index: 55°   Visibility: 10mi
Dew Point: 46°   Wind: 0mph
Humidity: 73%   Direction: NA
Pressure: 30.04"   Gusts: NA
Location:  43.01°N, 84.37°W
Report Text: KRNP 241634Z AUTO 00000KT 10SM OVC036 13/08 A3004 RMK AO2 T01260078
Loading
Personal Weather Stations






























Interactive Weather Map
Tropical Storm Tracking
New forecast layout! Learn more

10-Day Weather Forecast

Advertisements
Track Severe Weather on mobile